sensor_id;sensor_type;location;lat;lon;timestamp;pressure;altitude;pressure_sealevel;temperature;humidity
20228;BME280;12195;55.790;37.572;2024-02-26T00:02:20;100856.91;;;1.09;58.47
20228;BME280;12195;55.790;37.572;2024-02-26T00:04:54;100856.92;;;1.10;58.17
20228;BME280;12195;55.790;37.572;2024-02-26T00:07:26;100863.81;;;1.13;58.39
20228;BME280;12195;55.790;37.572;2024-02-26T00:09:58;100861.23;;;1.13;58.05
20228;BME280;12195;55.790;37.572;2024-02-26T00:12:31;100861.25;;;1.16;58.08
20228;BME280;12195;55.790;37.572;2024-02-26T00:15:05;100865.57;;;1.14;58.21
20228;BME280;12195;55.790;37.572;2024-02-26T00:17:37;100868.98;;;1.13;58.13
20228;BME280;12195;55.790;37.572;2024-02-26T00:20:11;100863.83;;;1.14;58.08
20228;BME280;12195;55.790;37.572;2024-02-26T00:22:44;100860.38;;;1.11;58.19
20228;BME280;12195;55.790;37.572;2024-02-26T00:25:17;100856.06;;;1.13;58.04
20228;BME280;12195;55.790;37.572;2024-02-26T00:27:49;100854.34;;;1.10;58.07
20228;BME280;12195;55.790;37.572;2024-02-26T00:30:22;100862.10;;;1.12;58.07
20228;BME280;12195;55.790;37.572;2024-02-26T00:32:55;100856.91;;;1.09;57.93
20228;BME280;12195;55.790;37.572;2024-02-26T00:35:27;100852.61;;;1.08;58.00
20228;BME280;12195;55.790;37.572;2024-02-26T00:38:01;100860.38;;;1.11;57.76
20228;BME280;12195;55.790;37.572;2024-02-26T00:40:34;100858.66;;;1.10;57.79
20228;BME280;12195;55.790;37.572;2024-02-26T00:43:07;100853.48;;;1.07;57.79
20228;BME280;12195;55.790;37.572;2024-02-26T00:45:39;100854.34;;;1.04;57.64
20228;BME280;12195;55.790;37.572;2024-02-26T00:48:11;100851.75;;;1.03;57.72
20228;BME280;12195;55.790;37.572;2024-02-26T00:50:44;100851.77;;;1.06;57.89
20228;BME280;12195;55.790;37.572;2024-02-26T00:53:17;100856.06;;;1.05;57.73
20228;BME280;12195;55.790;37.572;2024-02-26T00:55:49;100850.02;;;0.99;57.75
20228;BME280;12195;55.790;37.572;2024-02-26T00:58:22;100843.13;;;0.96;57.55
20228;BME280;12195;55.790;37.572;2024-02-26T01:00:54;100840.52;;;0.93;57.57
20228;BME280;12195;55.790;37.572;2024-02-26T01:03:26;100848.27;;;0.92;57.55
20228;BME280;12195;55.790;37.572;2024-02-26T01:05:59;100846.53;;;0.88;57.64
20228;BME280;12195;55.790;37.572;2024-02-26T01:08:31;100834.48;;;0.87;57.56
20228;BME280;12195;55.790;37.572;2024-02-26T01:11:04;100844.83;;;0.90;57.76
20228;BME280;12195;55.790;37.572;2024-02-26T01:13:36;100848.27;;;0.92;57.78
20228;BME280;12195;55.790;37.572;2024-02-26T01:16:09;100850.02;;;0.93;57.75
20228;BME280;12195;55.790;37.572;2024-02-26T01:18:42;100848.30;;;0.96;57.64
20228;BME280;12195;55.790;37.572;2024-02-26T01:21:14;100845.71;;;0.98;57.47
20228;BME280;12195;55.790;37.572;2024-02-26T01:23:47;100843.98;;;1.00;57.22
20228;BME280;12195;55.790;37.572;2024-02-26T01:26:19;100842.25;;;0.97;57.29
20228;BME280;12195;55.790;37.572;2024-02-26T01:28:53;100845.70;;;0.95;57.17
20228;BME280;12195;55.790;37.572;2024-02-26T01:31:26;100845.71;;;0.98;57.19
20228;BME280;12195;55.790;37.572;2024-02-26T01:34:00;100841.41;;;0.97;57.30
20228;BME280;12195;55.790;37.572;2024-02-26T01:36:33;100840.55;;;0.99;57.38
20228;BME280;12195;55.790;37.572;2024-02-26T01:39:06;100833.66;;;0.97;57.20
20228;BME280;12195;55.790;37.572;2024-02-26T01:41:38;100836.24;;;0.97;56.89
20228;BME280;12195;55.790;37.572;2024-02-26T01:44:13;100834.48;;;0.96;56.99
20228;BME280;12195;55.790;37.572;2024-02-26T01:46:45;100844.00;;;0.97;56.98
20228;BME280;12195;55.790;37.572;2024-02-26T01:49:18;100850.00;;;0.96;56.95
20228;BME280;12195;55.790;37.572;2024-02-26T01:51:51;100836.24;;;0.97;56.88
20228;BME280;12195;55.790;37.572;2024-02-26T01:54:23;100832.77;;;0.95;56.74
20228;BME280;12195;55.790;37.572;2024-02-26T01:56:56;100831.89;;;0.94;56.60
20228;BME280;12195;55.790;37.572;2024-02-26T01:59:29;100838.80;;;0.92;57.03
20228;BME280;12195;55.790;37.572;2024-02-26T02:02:03;100835.34;;;0.92;56.95
20228;BME280;12195;55.790;37.572;2024-02-26T02:04:37;100827.59;;;0.92;57.05
20228;BME280;12195;55.790;37.572;2024-02-26T02:07:09;100830.18;;;0.93;57.02
20228;BME280;12195;55.790;37.572;2024-02-26T02:09:41;100821.59;;;0.93;56.95
20228;BME280;12195;55.790;37.572;2024-02-26T02:12:14;100825.02;;;0.93;57.11
20228;BME280;12195;55.790;37.572;2024-02-26T02:14:47;100821.55;;;0.94;57.11
20228;BME280;12195;55.790;37.572;2024-02-26T02:17:20;100820.73;;;0.97;57.11
20228;BME280;12195;55.790;37.572;2024-02-26T02:19:53;100822.45;;;0.98;57.24
20228;BME280;12195;55.790;37.572;2024-02-26T02:22:26;100818.99;;;0.99;57.10
20228;BME280;12195;55.790;37.572;2024-02-26T02:24:58;100819.86;;;0.96;56.80
20228;BME280;12195;55.790;37.572;2024-02-26T02:27:31;100822.42;;;0.93;56.93
20228;BME280;12195;55.790;37.572;2024-02-26T02:30:05;100816.41;;;0.91;56.89
20228;BME280;12195;55.790;37.572;2024-02-26T02:32:40;100819.84;;;0.87;56.82
20228;BME280;12195;55.790;37.572;2024-02-26T02:35:13;100817.25;;;0.86;57.10
20228;BME280;12195;55.790;37.572;2024-02-26T02:37:46;100811.20;;;0.85;57.00
20228;BME280;12195;55.790;37.572;2024-02-26T02:40:18;100812.92;;;0.86;56.81
20228;BME280;12195;55.790;37.572;2024-02-26T02:42:50;100816.38;;;0.87;56.66
20228;BME280;12195;55.790;37.572;2024-02-26T02:45:23;100821.53;;;0.84;56.71
20228;BME280;12195;55.790;37.572;2024-02-26T02:47:55;100818.11;;;0.83;56.91
20228;BME280;12195;55.790;37.572;2024-02-26T02:50:28;100818.11;;;0.83;56.71
20228;BME280;12195;55.790;37.572;2024-02-26T02:53:01;100813.80;;;0.87;56.43
20228;BME280;12195;55.790;37.572;2024-02-26T02:55:34;100814.64;;;0.81;56.27
20228;BME280;12195;55.790;37.572;2024-02-26T02:58:07;100818.95;;;0.78;56.42
20228;BME280;12195;55.790;37.572;2024-02-26T03:00:40;100815.48;;;0.76;56.66
20228;BME280;12195;55.790;37.572;2024-02-26T03:03:12;100814.64;;;0.75;56.55
20228;BME280;12195;55.790;37.572;2024-02-26T03:05:45;100810.33;;;0.71;56.60
20228;BME280;12195;55.790;37.572;2024-02-26T03:08:18;100812.04;;;0.71;56.57
20228;BME280;12195;55.790;37.572;2024-02-26T03:10:50;100816.36;;;0.70;56.60
20228;BME280;12195;55.790;37.572;2024-02-26T03:13:22;100813.78;;;0.70;56.61
20228;BME280;12195;55.790;37.572;2024-02-26T03:15:55;100812.88;;;0.67;56.72
20228;BME280;12195;55.790;37.572;2024-02-26T03:18:28;100806.02;;;0.67;56.79
20228;BME280;12195;55.790;37.572;2024-02-26T03:21:01;100806.02;;;0.69;56.86
20228;BME280;12195;55.790;37.572;2024-02-26T03:23:34;100811.19;;;0.69;56.61
20228;BME280;12195;55.790;37.572;2024-02-26T03:26:11;100801.70;;;0.65;56.65
20228;BME280;12195;55.790;37.572;2024-02-26T03:28:45;100805.16;;;0.64;56.72
20228;BME280;12195;55.790;37.572;2024-02-26T03:31:17;100808.56;;;0.61;56.73
20228;BME280;12195;55.790;37.572;2024-02-26T03:33:51;100810.31;;;0.62;56.96
20228;BME280;12195;55.790;37.572;2024-02-26T03:36:24;100805.97;;;0.61;56.99
20228;BME280;12195;55.790;37.572;2024-02-26T03:38:56;100807.72;;;0.61;57.06
20228;BME280;12195;55.790;37.572;2024-02-26T03:41:29;100799.97;;;0.61;56.83
20228;BME280;12195;55.790;37.572;2024-02-26T03:44:05;100800.82;;;0.58;57.17
20228;BME280;12195;55.790;37.572;2024-02-26T03:46:38;100805.99;;;0.58;57.14
20228;BME280;12195;55.790;37.572;2024-02-26T03:49:11;100812.00;;;0.59;57.42
20228;BME280;12195;55.790;37.572;2024-02-26T03:51:45;100805.13;;;0.61;57.25
20228;BME280;12195;55.790;37.572;2024-02-26T03:54:17;100812.88;;;0.61;57.18
20228;BME280;12195;55.790;37.572;2024-02-26T03:56:51;100812.88;;;0.61;57.10
20228;BME280;12195;55.790;37.572;2024-02-26T03:59:23;100806.84;;;0.62;57.19
20228;BME280;12195;55.790;37.572;2024-02-26T04:01:56;100803.41;;;0.60;57.09
20228;BME280;12195;55.790;37.572;2024-02-26T04:04:29;100813.73;;;0.61;57.13
20228;BME280;12195;55.790;37.572;2024-02-26T04:07:01;100812.00;;;0.59;57.28
20228;BME280;12195;55.790;37.572;2024-02-26T04:09:35;100810.30;;;0.59;57.21
20228;BME280;12195;55.790;37.572;2024-02-26T04:12:08;100809.41;;;0.57;57.07
20228;BME280;12195;55.790;37.572;2024-02-26T04:14:43;100809.42;;;0.54;57.24
20228;BME280;12195;55.790;37.572;2024-02-26T04:17:17;100805.09;;;0.55;57.42
20228;BME280;12195;55.790;37.572;2024-02-26T04:19:50;100810.28;;;0.52;57.40
20228;BME280;12195;55.790;37.572;2024-02-26T04:22:22;100806.87;;;0.71;57.84
20228;BME280;12195;55.790;37.572;2024-02-26T04:24:56;100813.75;;;0.60;56.66
20228;BME280;12195;55.790;37.572;2024-02-26T04:27:29;100805.95;;;0.52;57.13
20228;BME280;12195;55.790;37.572;2024-02-26T04:30:02;100811.97;;;0.48;57.29
20228;BME280;12195;55.790;37.572;2024-02-26T04:32:35;100814.55;;;0.47;57.32
20228;BME280;12195;55.790;37.572;2024-02-26T04:35:09;100805.08;;;0.46;57.49
20228;BME280;12195;55.790;37.572;2024-02-26T04:37:42;100805.08;;;0.46;57.43
20228;BME280;12195;55.790;37.572;2024-02-26T04:40:15;100812.83;;;0.46;57.61
20228;BME280;12195;55.790;37.572;2024-02-26T04:42:48;100814.55;;;0.47;57.63
20228;BME280;12195;55.790;37.572;2024-02-26T04:45:20;100808.52;;;0.45;57.58
20228;BME280;12195;55.790;37.572;2024-02-26T04:47:53;100808.52;;;0.45;57.52
20228;BME280;12195;55.790;37.572;2024-02-26T04:50:28;100806.80;;;0.47;57.82
20228;BME280;12195;55.790;37.572;2024-02-26T04:53:01;100811.11;;;0.46;57.84
20228;BME280;12195;55.790;37.572;2024-02-26T04:55:39;100805.09;;;0.49;57.90
20228;BME280;12195;55.790;37.572;2024-02-26T04:58:15;100812.02;;;0.56;57.86
20228;BME280;12195;55.790;37.572;2024-02-26T05:00:49;100806.83;;;0.53;58.11
20228;BME280;12195;55.790;37.572;2024-02-26T05:03:24;100800.80;;;0.55;58.06
20228;BME280;12195;55.790;37.572;2024-02-26T05:05:58;100811.16;;;0.58;58.03
20228;BME280;12195;55.790;37.572;2024-02-26T05:08:32;100799.96;;;0.65;58.06
20228;BME280;12195;55.790;37.572;2024-02-26T05:11:06;100798.25;;;0.66;58.23
20228;BME280;12195;55.790;37.572;2024-02-26T05:13:39;100799.12;;;0.71;58.03
20228;BME280;12195;55.790;37.572;2024-02-26T05:16:12;100804.31;;;0.75;57.79
20228;BME280;12195;55.790;37.572;2024-02-26T05:18:45;100803.42;;;0.73;57.86
20228;BME280;12195;55.790;37.572;2024-02-26T05:21:21;100803.44;;;0.75;57.97
20228;BME280;12195;55.790;37.572;2024-02-26T05:23:56;100799.98;;;0.76;57.96
20228;BME280;12195;55.790;37.572;2024-02-26T05:26:29;100794.84;;;0.83;58.04
20228;BME280;12195;55.790;37.572;2024-02-26T05:29:02;100800.87;;;0.85;57.42
20228;BME280;12195;55.790;37.572;2024-02-26T05:31:35;100794.00;;;0.87;57.69
20228;BME280;12195;55.790;37.572;2024-02-26T05:34:09;100791.40;;;0.92;58.03
20228;BME280;12195;55.790;37.572;2024-02-26T05:36:42;100799.16;;;0.95;57.91
20228;BME280;12195;55.790;37.572;2024-02-26T05:39:15;100798.31;;;1.00;57.71
20228;BME280;12195;55.790;37.572;2024-02-26T05:41:50;100798.31;;;1.00;57.71
20228;BME280;12195;55.790;37.572;2024-02-26T05:44:25;100800.05;;;1.04;57.38
20228;BME280;12195;55.790;37.572;2024-02-26T05:46:58;100786.25;;;1.05;57.33
20228;BME280;12195;55.790;37.572;2024-02-26T05:49:33;100787.97;;;1.08;57.26
20228;BME280;12195;55.790;37.572;2024-02-26T05:52:06;100784.53;;;1.13;57.02
20228;BME280;12195;55.790;37.572;2024-02-26T05:54:40;100781.09;;;1.19;57.25
20228;BME280;12195;55.790;37.572;2024-02-26T05:57:14;100794.88;;;1.22;57.20
20228;BME280;12195;55.790;37.572;2024-02-26T05:59:48;100794.03;;;1.32;57.07
20228;BME280;12195;55.790;37.572;2024-02-26T06:02:22;100796.59;;;1.35;56.98
20228;BME280;12195;55.790;37.572;2024-02-26T06:04:55;100805.24;;;1.42;56.07
20228;BME280;12195;55.790;37.572;2024-02-26T06:07:30;100811.27;;;1.48;56.29
20228;BME280;12195;55.790;37.572;2024-02-26T06:10:03;100804.35;;;1.49;55.78
20228;BME280;12195;55.790;37.572;2024-02-26T06:12:37;100782.81;;;1.36;56.68
20228;BME280;12195;55.790;37.572;2024-02-26T06:15:10;100782.81;;;1.36;56.68
20228;BME280;12195;55.790;37.572;2024-02-26T06:17:43;100806.94;;;1.49;56.32
20228;BME280;12195;55.790;37.572;2024-02-26T06:20:15;100810.37;;;1.69;56.28
20228;BME280;12195;55.790;37.572;2024-02-26T06:22:48;100809.52;;;1.59;56.06
20228;BME280;12195;55.790;37.572;2024-02-26T06:25:21;100805.21;;;1.58;56.24
20228;BME280;12195;55.790;37.572;2024-02-26T06:27:54;100806.94;;;1.64;56.83
20228;BME280;12195;55.790;37.572;2024-02-26T06:30:28;100809.50;;;1.70;56.00
20228;BME280;12195;55.790;37.572;2024-02-26T06:33:02;100805.20;;;1.70;56.39
20228;BME280;12195;55.790;37.572;2024-02-26T06:35:35;100803.45;;;1.74;56.12
20228;BME280;12195;55.790;37.572;2024-02-26T06:38:12;100805.20;;;1.75;56.26
20228;BME280;12195;55.790;37.572;2024-02-26T06:40:46;100804.33;;;1.79;55.76
20228;BME280;12195;55.790;37.572;2024-02-26T06:43:19;100800.00;;;1.79;56.23
20228;BME280;12195;55.790;37.572;2024-02-26T06:45:53;100811.23;;;1.83;56.39
20228;BME280;12195;55.790;37.572;2024-02-26T06:48:27;100808.61;;;1.87;56.33
20228;BME280;12195;55.790;37.572;2024-02-26T06:51:01;100801.69;;;1.94;56.13
20228;BME280;12195;55.790;37.572;2024-02-26T06:53:34;100806.84;;;2.13;56.93
20228;BME280;12195;55.790;37.572;2024-02-26T06:56:07;100812.02;;;2.09;55.64
20228;BME280;12195;55.790;37.572;2024-02-26T06:58:41;100805.12;;;2.08;55.68
20228;BME280;12195;55.790;37.572;2024-02-26T07:01:13;100806.84;;;2.09;56.11
20228;BME280;12195;55.790;37.572;2024-02-26T07:03:46;100810.27;;;2.12;55.93
20228;BME280;12195;55.790;37.572;2024-02-26T07:06:20;100811.14;;;2.14;56.03
20228;BME280;12195;55.790;37.572;2024-02-26T07:08:56;100806.80;;;2.21;55.62
20228;BME280;12195;55.790;37.572;2024-02-26T07:11:29;100806.77;;;2.25;55.68
20228;BME280;12195;55.790;37.572;2024-02-26T07:14:02;100795.52;;;2.31;55.64
20228;BME280;12195;55.790;37.572;2024-02-26T07:16:36;100799.81;;;2.41;55.20
20228;BME280;12195;55.790;37.572;2024-02-26T07:19:09;100799.77;;;2.50;55.17
20228;BME280;12195;55.790;37.572;2024-02-26T07:21:42;100793.70;;;2.55;54.75
20228;BME280;12195;55.790;37.572;2024-02-26T07:24:15;100788.47;;;2.61;54.84
20228;BME280;12195;55.790;37.572;2024-02-26T07:26:48;100793.59;;;2.70;55.07
20228;BME280;12195;55.790;37.572;2024-02-26T07:29:22;100797.00;;;2.81;54.77
20228;BME280;12195;55.790;37.572;2024-02-26T07:31:55;100809.81;;;3.05;55.74
20228;BME280;12195;55.790;37.572;2024-02-26T07:34:28;100797.73;;;3.03;54.55
20228;BME280;12195;55.790;37.572;2024-02-26T07:37:04;100790.78;;;3.05;54.57
20228;BME280;12195;55.790;37.572;2024-02-26T07:39:41;100783.94;;;2.98;54.16
20228;BME280;12195;55.790;37.572;2024-02-26T07:42:14;100795.15;;;2.98;54.11
20228;BME280;12195;55.790;37.572;2024-02-26T07:44:47;100796.02;;;2.99;54.75
20228;BME280;12195;55.790;37.572;2024-02-26T07:47:25;100791.62;;;3.10;54.44
20228;BME280;12195;55.790;37.572;2024-02-26T07:49:59;100795.85;;;3.23;54.42
20228;BME280;12195;55.790;37.572;2024-02-26T07:52:33;100789.67;;;3.37;54.11
20228;BME280;12195;55.790;37.572;2024-02-26T07:55:07;100798.19;;;3.53;53.73
20228;BME280;12195;55.790;37.572;2024-02-26T07:57:44;100799.00;;;3.56;53.66
20228;BME280;12195;55.790;37.572;2024-02-26T08:00:18;100805.86;;;3.65;53.32
20228;BME280;12195;55.790;37.572;2024-02-26T08:02:51;100797.18;;;3.67;53.21
20228;BME280;12195;55.790;37.572;2024-02-26T08:05:24;100798.86;;;3.73;53.26
20228;BME280;12195;55.790;37.572;2024-02-26T08:07:58;100796.17;;;3.82;53.46
20228;BME280;12195;55.790;37.572;2024-02-26T08:10:31;100794.34;;;3.91;52.95
20228;BME280;12195;55.790;37.572;2024-02-26T08:13:05;100788.20;;;4.00;52.12
20228;BME280;12195;55.790;37.572;2024-02-26T08:15:38;100785.55;;;4.03;51.93
20228;BME280;12195;55.790;37.572;2024-02-26T08:18:11;100785.61;;;4.00;51.94
20228;BME280;12195;55.790;37.572;2024-02-26T08:20:44;100776.13;;;3.96;52.22
20228;BME280;12195;55.790;37.572;2024-02-26T08:23:21;100778.66;;;3.99;52.11
20228;BME280;12195;55.790;37.572;2024-02-26T08:25:55;100779.53;;;3.99;51.89
20228;BME280;12195;55.790;37.572;2024-02-26T08:28:28;100770.84;;;4.02;52.27
20228;BME280;12195;55.790;37.572;2024-02-26T08:31:02;100775.94;;;4.09;52.94
20228;BME280;12195;55.790;37.572;2024-02-26T08:33:35;100776.73;;;4.16;52.36
20228;BME280;12195;55.790;37.572;2024-02-26T08:36:08;100771.48;;;4.20;51.19
20228;BME280;12195;55.790;37.572;2024-02-26T08:38:40;100767.08;;;4.27;51.73
20228;BME280;12195;55.790;37.572;2024-02-26T08:41:13;100767.03;;;4.31;51.04
20228;BME280;12195;55.790;37.572;2024-02-26T08:43:47;100760.80;;;4.43;51.13
20228;BME280;12195;55.790;37.572;2024-02-26T08:46:20;100763.22;;;4.58;51.11
20228;BME280;12195;55.790;37.572;2024-02-26T08:48:53;100750.19;;;4.59;50.08
20228;BME280;12195;55.790;37.572;2024-02-26T08:51:27;100747.44;;;4.70;50.70
20228;BME280;12195;55.790;37.572;2024-02-26T08:54:00;100745.48;;;4.84;50.34
20228;BME280;12195;55.790;37.572;2024-02-26T08:56:33;100761.78;;;4.96;49.87
20228;BME280;12195;55.790;37.572;2024-02-26T08:59:06;100755.52;;;5.08;49.39
20228;BME280;12195;55.790;37.572;2024-02-26T09:01:39;100757.15;;;5.15;50.19
20228;BME280;12195;55.790;37.572;2024-02-26T09:04:13;100757.40;;;4.98;49.50
20228;BME280;12195;55.790;37.572;2024-02-26T09:06:47;100751.45;;;4.90;49.01
20228;BME280;12195;55.790;37.572;2024-02-26T09:09:20;100744.42;;;4.95;49.34
20228;BME280;12195;55.790;37.572;2024-02-26T09:11:54;100750.61;;;4.90;49.56
20228;BME280;12195;55.790;37.572;2024-02-26T09:14:27;100749.65;;;4.94;49.56
20228;BME280;12195;55.790;37.572;2024-02-26T09:17:00;100756.45;;;5.04;49.76
20228;BME280;12195;55.790;37.572;2024-02-26T09:19:33;100761.67;;;5.02;49.41
20228;BME280;12195;55.790;37.572;2024-02-26T09:22:07;100755.56;;;5.05;49.64
20228;BME280;12195;55.790;37.572;2024-02-26T09:24:42;100747.71;;;5.08;49.95
20228;BME280;12195;55.790;37.572;2024-02-26T09:27:15;100745.89;;;5.13;49.61
20228;BME280;12195;55.790;37.572;2024-02-26T09:29:48;100750.20;;;5.14;49.29
20228;BME280;12195;55.790;37.572;2024-02-26T09:32:22;100746.81;;;5.09;49.38
20228;BME280;12195;55.790;37.572;2024-02-26T09:34:56;100752.00;;;5.10;49.20
20228;BME280;12195;55.790;37.572;2024-02-26T09:37:36;100759.80;;;5.12;49.44
20228;BME280;12195;55.790;37.572;2024-02-26T09:40:07;100750.39;;;5.02;49.52
20228;BME280;12195;55.790;37.572;2024-02-26T09:42:46;100756.58;;;4.96;49.60
20228;BME280;12195;55.790;37.572;2024-02-26T09:45:19;100756.58;;;4.96;49.85
20228;BME280;12195;55.790;37.572;2024-02-26T09:47:56;100759.11;;;4.99;49.69
20228;BME280;12195;55.790;37.572;2024-02-26T09:50:30;100749.63;;;4.95;49.79
20228;BME280;12195;55.790;37.572;2024-02-26T09:53:05;100748.03;;;4.88;50.11
20228;BME280;12195;55.790;37.572;2024-02-26T09:55:41;100761.84;;;4.92;50.26
20228;BME280;12195;55.790;37.572;2024-02-26T09:58:14;100753.14;;;4.93;49.62
20228;BME280;12195;55.790;37.572;2024-02-26T10:00:51;100750.46;;;4.99;48.77
20228;BME280;12195;55.790;37.572;2024-02-26T10:03:30;100750.46;;;4.99;49.28
20228;BME280;12195;55.790;37.572;2024-02-26T10:06:04;100737.36;;;5.03;49.36
20228;BME280;12195;55.790;37.572;2024-02-26T10:08:38;100742.37;;;5.15;49.24
20228;BME280;12195;55.790;37.572;2024-02-26T10:11:13;100737.92;;;5.22;49.02
20228;BME280;12195;55.790;37.572;2024-02-26T10:13:47;100731.61;;;5.35;48.56
20228;BME280;12195;55.790;37.572;2024-02-26T10:16:20;100727.09;;;5.46;48.95
20228;BME280;12195;55.790;37.572;2024-02-26T10:18:53;100733.97;;;5.50;48.05
20228;BME280;12195;55.790;37.572;2024-02-26T10:21:29;100735.63;;;5.54;48.15
20228;BME280;12195;55.790;37.572;2024-02-26T10:24:02;100744.38;;;5.50;48.36
20228;BME280;12195;55.790;37.572;2024-02-26T10:26:36;100736.67;;;5.45;48.12
20228;BME280;12195;55.790;37.572;2024-02-26T10:29:09;100732.47;;;5.37;48.50
20228;BME280;12195;55.790;37.572;2024-02-26T10:31:45;100736.03;;;5.31;48.64
20228;BME280;12195;55.790;37.572;2024-02-26T10:34:19;100726.41;;;5.35;47.86
20228;BME280;12195;55.790;37.572;2024-02-26T10:36:54;100725.00;;;5.17;48.17
20228;BME280;12195;55.790;37.572;2024-02-26T10:39:27;100714.52;;;5.20;48.82
20228;BME280;12195;55.790;37.572;2024-02-26T10:42:01;100723.92;;;5.29;48.43
20228;BME280;12195;55.790;37.572;2024-02-26T10:44:35;100732.53;;;5.32;48.47
20228;BME280;12195;55.790;37.572;2024-02-26T10:47:08;100736.52;;;5.53;48.68
20228;BME280;12195;55.790;37.572;2024-02-26T10:49:46;100728.08;;;5.39;47.76
20228;BME280;12195;55.790;37.572;2024-02-26T10:52:21;100719.45;;;5.37;48.05
20228;BME280;12195;55.790;37.572;2024-02-26T10:55:04;100727.11;;;5.44;47.95
20228;BME280;12195;55.790;37.572;2024-02-26T10:57:36;100728.92;;;5.41;47.59
20228;BME280;12195;55.790;37.572;2024-02-26T11:00:15;100716.80;;;5.40;48.01
20228;BME280;12195;55.790;37.572;2024-02-26T11:02:51;100716.80;;;5.40;47.87
20228;BME280;12195;55.790;37.572;2024-02-26T11:05:29;100716.89;;;5.34;47.69
20228;BME280;12195;55.790;37.572;2024-02-26T11:08:05;100722.98;;;5.33;48.43
20228;BME280;12195;55.790;37.572;2024-02-26T11:10:39;100710.20;;;5.19;48.49
20228;BME280;12195;55.790;37.572;2024-02-26T11:13:18;100705.92;;;5.15;48.69
20228;BME280;12195;55.790;37.572;2024-02-26T11:15:52;100704.34;;;5.08;48.60
20228;BME280;12195;55.790;37.572;2024-02-26T11:18:28;100701.81;;;5.02;49.36
20228;BME280;12195;55.790;37.572;2024-02-26T11:21:02;100699.23;;;5.01;49.58
20228;BME280;12195;55.790;37.572;2024-02-26T11:23:36;100709.73;;;4.96;49.42
20228;BME280;12195;55.790;37.572;2024-02-26T11:26:11;100707.94;;;5.00;50.03
20228;BME280;12195;55.790;37.572;2024-02-26T11:28:47;100698.22;;;5.11;49.85
20228;BME280;12195;55.790;37.572;2024-02-26T11:31:23;100705.77;;;5.24;49.05
20228;BME280;12195;55.790;37.572;2024-02-26T11:33:58;100709.27;;;5.23;49.02
20228;BME280;12195;55.790;37.572;2024-02-26T11:36:33;100706.68;;;5.22;49.10
20228;BME280;12195;55.790;37.572;2024-02-26T11:39:08;100702.41;;;5.18;49.50
20228;BME280;12195;55.790;37.572;2024-02-26T11:41:44;100693.83;;;5.13;50.31
20228;BME280;12195;55.790;37.572;2024-02-26T11:44:29;100702.55;;;5.10;49.80
20228;BME280;12195;55.790;37.572;2024-02-26T11:47:14;100693.95;;;5.07;50.06
20228;BME280;12195;55.790;37.572;2024-02-26T11:49:47;100691.39;;;5.04;49.69
20228;BME280;12195;55.790;37.572;2024-02-26T11:52:22;100696.67;;;4.98;50.30
20228;BME280;12195;55.790;37.572;2024-02-26T11:54:59;100680.38;;;4.88;50.14
20228;BME280;12195;55.790;37.572;2024-02-26T11:57:39;100681.22;;;4.89;50.71
20228;BME280;12195;55.790;37.572;2024-02-26T12:00:13;100684.58;;;4.95;50.18
20228;BME280;12195;55.790;37.572;2024-02-26T12:02:50;100687.89;;;5.05;49.13
20228;BME280;12195;55.790;37.572;2024-02-26T12:05:34;100676.55;;;5.09;49.86
20228;BME280;12195;55.790;37.572;2024-02-26T12:08:09;100681.52;;;5.22;49.63
20228;BME280;12195;55.790;37.572;2024-02-26T12:10:44;100687.33;;;5.36;49.19
20228;BME280;12195;55.790;37.572;2024-02-26T12:13:17;100685.42;;;5.46;49.69
20228;BME280;12195;55.790;37.572;2024-02-26T12:15:56;100680.77;;;5.61;49.06
20228;BME280;12195;55.790;37.572;2024-02-26T12:18:30;100672.62;;;5.81;49.48
20228;BME280;12195;55.790;37.572;2024-02-26T12:21:04;100680.96;;;5.98;48.49
20228;BME280;12195;55.790;37.572;2024-02-26T12:23:38;100672.86;;;6.12;47.79
20228;BME280;12195;55.790;37.572;2024-02-26T12:26:10;100670.02;;;6.22;47.15
20228;BME280;12195;55.790;37.572;2024-02-26T12:28:44;100668.19;;;6.26;46.91
20228;BME280;12195;55.790;37.572;2024-02-26T12:31:18;100668.19;;;6.26;46.91
20228;BME280;12195;55.790;37.572;2024-02-26T12:34:08;100665.58;;;6.26;47.20
20228;BME280;12195;55.790;37.572;2024-02-26T12:36:42;100674.33;;;6.23;47.25
20228;BME280;12195;55.790;37.572;2024-02-26T12:39:15;100686.73;;;6.12;46.85
20228;BME280;12195;55.790;37.572;2024-02-26T12:41:48;100677.45;;;5.99;47.28
20228;BME280;12195;55.790;37.572;2024-02-26T12:44:27;100669.94;;;5.84;47.51
20228;BME280;12195;55.790;37.572;2024-02-26T12:47:01;100672.78;;;5.72;47.64
20228;BME280;12195;55.790;37.572;2024-02-26T12:49:55;100680.77;;;5.61;47.82
20228;BME280;12195;55.790;37.572;2024-02-26T12:52:32;100668.85;;;5.50;48.10
20228;BME280;12195;55.790;37.572;2024-02-26T12:55:06;100673.32;;;5.43;49.20
20228;BME280;12195;55.790;37.572;2024-02-26T12:57:42;100676.80;;;5.44;48.42
20228;BME280;12195;55.790;37.572;2024-02-26T13:00:16;100681.09;;;5.46;48.24
20228;BME280;12195;55.790;37.572;2024-02-26T13:02:50;100678.97;;;5.66;48.93
20228;BME280;12195;55.790;37.572;2024-02-26T13:05:23;100674.55;;;5.70;48.06
20228;BME280;12195;55.790;37.572;2024-02-26T13:07:58;100671.27;;;6.05;48.85
20228;BME280;12195;55.790;37.572;2024-02-26T13:10:33;100665.73;;;6.20;47.10
20228;BME280;12195;55.790;37.572;2024-02-26T13:13:06;100665.97;;;6.47;45.99
20228;BME280;12195;55.790;37.572;2024-02-26T13:15:40;100667.08;;;6.74;45.04
20228;BME280;12195;55.790;37.572;2024-02-26T13:18:15;100664.28;;;6.81;44.69
20228;BME280;12195;55.790;37.572;2024-02-26T13:20:48;100672.36;;;6.71;45.30
20228;BME280;12195;55.790;37.572;2024-02-26T13:23:21;100672.78;;;6.54;44.66
20228;BME280;12195;55.790;37.572;2024-02-26T13:25:57;100670.13;;;6.16;45.13